Time;durP1;ratioP1;P1;durP2;ratioP2;P2;SDS_P1;SDS_P2;PMS_P1;PMS_P2;Temp;Humidity;BMP_temperature;BMP_pressure;BME280_temperature;BME280_humidity;BME280_pressure;Samples;Min_cycle;Max_cycle;Signal;HPM_P1;HPM_P2
2023/04/26 00:01:50;;;;;;;;;;;;;;;3.98;74.74;101896.09;5068999;28;20400;-58
2023/04/26 00:04:15;;;;;;;;;;;;;;;3.95;74.97;101906.81;5068810;28;19963;-58
2023/04/26 00:06:40;;;;;;;;;;;;;;;3.91;75.14;101897.44;5065166;28;19916;-58
2023/04/26 00:09:06;;;;;;;;;;;;;;;3.87;75.23;101893.34;5060296;28;19924;-58
2023/04/26 00:11:31;;;;;;;;;;;;;;;3.87;75.23;101895.97;5067083;28;20282;-58
2023/04/26 00:13:57;;;;;;;;;;;;;;;3.84;75.01;101898.78;5063950;28;19924;-58
2023/04/26 00:16:22;;;;;;;;;;;;;;;3.82;75.18;101891.97;5065363;28;19926;-59
2023/04/26 00:18:48;;;;;;;;;;;;;;;3.77;75.58;101897.53;5063590;28;20345;-58
2023/04/26 00:21:13;;;;;;;;;;;;;;;3.71;75.98;101903.16;5066827;28;19927;-58
2023/04/26 00:23:38;;;;;;;;;;;;;;;3.66;75.66;101900.84;5066668;28;20455;-57
2023/04/26 00:26:03;;;;;;;;;;;;;;;3.65;75.59;101893.06;5066318;28;19912;-58
2023/04/26 00:28:30;;;;;;;;;;;;;;;3.66;75.45;101895.56;5063196;28;20378;-58
2023/04/26 00:30:56;;;;;;;;;;;;;;;3.67;75.46;101891.16;5064096;28;20333;-58
2023/04/26 00:33:22;;;;;;;;;;;;;;;3.67;75.66;101888.53;5065060;28;19920;-58
2023/04/26 00:35:47;;;;;;;;;;;;;;;3.69;75.57;101891.91;5067528;28;20271;-57
2023/04/26 00:38:12;;;;;;;;;;;;;;;3.69;75.50;101897.16;5068208;28;20008;-59
2023/04/26 00:40:37;;;;;;;;;;;;;;;3.68;75.79;101893.69;5064300;28;19916;-57
2023/04/26 00:43:03;;;;;;;;;;;;;;;3.70;75.53;101890.97;5062298;28;19926;-58
2023/04/26 00:45:28;;;;;;;;;;;;;;;3.71;75.69;101897.91;5054997;28;19928;-58
2023/04/26 00:47:53;;;;;;;;;;;;;;;3.66;75.64;101887.69;5065455;28;19986;-58
2023/04/26 00:50:19;;;;;;;;;;;;;;;3.58;75.81;101892.63;5058054;28;20019;-58
2023/04/26 00:52:44;;;;;;;;;;;;;;;3.48;76.01;101899.41;5065717;28;19969;-57
2023/04/26 00:55:10;;;;;;;;;;;;;;;3.39;76.26;101898.19;5060418;28;20554;-58
2023/04/26 00:57:35;;;;;;;;;;;;;;;3.33;76.54;101897.75;5066986;28;19928;-58
2023/04/26 01:00:00;;;;;;;;;;;;;;;3.29;76.79;101894.50;5064814;28;19916;-58
2023/04/26 01:02:25;;;;;;;;;;;;;;;3.26;77.04;101896.47;5067178;28;19916;-57
2023/04/26 01:04:50;;;;;;;;;;;;;;;3.22;77.32;101897.59;5060825;28;19917;-59
2023/04/26 01:07:16;;;;;;;;;;;;;;;3.17;77.72;101897.88;5061488;28;19951;-59
2023/04/26 01:09:41;;;;;;;;;;;;;;;3.13;77.82;101891.13;5067105;28;19920;-58
2023/04/26 01:12:07;;;;;;;;;;;;;;;3.08;78.03;101894.06;5067103;28;19916;-58
2023/04/26 01:14:35;;;;;;;;;;;;;;;3.04;78.81;101891.72;5065715;28;20112;-58
2023/04/26 01:17:01;;;;;;;;;;;;;;;2.99;79.14;101897.25;5057233;28;20369;-58
2023/04/26 01:19:26;;;;;;;;;;;;;;;2.94;79.52;101901.97;5061238;28;19916;-56
2023/04/26 01:21:51;;;;;;;;;;;;;;;2.88;79.80;101897.06;5062667;28;19919;-58
2023/04/26 01:24:16;;;;;;;;;;;;;;;2.87;80.18;101891.91;5064016;28;20452;-57
2023/04/26 01:26:45;;;;;;;;;;;;;;;2.86;79.86;101898.09;5058627;28;19924;-57
2023/04/26 01:29:14;;;;;;;;;;;;;;;2.85;79.89;101907.75;5064910;28;19916;-58
2023/04/26 01:31:39;;;;;;;;;;;;;;;2.81;80.19;101898.38;5064648;28;20006;-58
2023/04/26 01:34:05;;;;;;;;;;;;;;;2.79;80.17;101905.50;5053143;28;20046;-58
2023/04/26 01:36:31;;;;;;;;;;;;;;;2.77;80.23;101897.75;5062463;28;19923;-57
2023/04/26 01:38:56;;;;;;;;;;;;;;;2.77;80.21;101905.59;5065640;28;20362;-58
2023/04/26 01:41:21;;;;;;;;;;;;;;;2.75;80.73;101907.47;5067015;28;19923;-58
2023/04/26 01:43:46;;;;;;;;;;;;;;;2.72;81.23;101905.06;5067975;28;19912;-57
2023/04/26 01:46:12;;;;;;;;;;;;;;;2.72;81.57;101902.44;5066540;28;19970;-57
2023/04/26 01:48:37;;;;;;;;;;;;;;;2.72;81.96;101902.44;5062512;28;19917;-57
2023/04/26 01:51:02;;;;;;;;;;;;;;;2.68;82.08;101898.31;5070694;28;20435;-58
2023/04/26 01:53:27;;;;;;;;;;;;;;;2.66;82.31;101896.72;5077758;28;19995;-57
2023/04/26 01:55:54;;;;;;;;;;;;;;;2.64;82.39;101893.34;5072748;28;19916;-58
2023/04/26 01:58:19;;;;;;;;;;;;;;;2.63;82.72;101895.13;5067558;28;20016;-57
2023/04/26 02:00:45;;;;;;;;;;;;;;;2.60;83.18;101897.06;5068455;28;20003;-57
2023/04/26 02:03:10;;;;;;;;;;;;;;;2.58;83.23;101905.03;5071168;28;20300;-57
2023/04/26 02:05:35;;;;;;;;;;;;;;;2.57;83.55;101902.50;5063990;28;19986;-57
2023/04/26 02:08:01;;;;;;;;;;;;;;;2.58;83.35;101909.44;5064280;28;19920;-57
2023/04/26 02:10:26;;;;;;;;;;;;;;;2.52;83.12;101905.41;5063459;28;19975;-56
2023/04/26 02:12:51;;;;;;;;;;;;;;;2.48;83.39;101909.16;5064162;28;19936;-58
2023/04/26 02:15:16;;;;;;;;;;;;;;;2.45;83.66;101904.09;5060713;28;19924;-57
2023/04/26 02:17:41;;;;;;;;;;;;;;;2.41;83.58;101907.84;5064264;28;19924;-58
2023/04/26 02:20:10;;;;;;;;;;;;;;;2.34;83.54;101907.38;5064032;28;19916;-58
2023/04/26 02:22:35;;;;;;;;;;;;;;;2.31;83.45;101906.69;5068389;28;19921;-58
2023/04/26 02:25:00;;;;;;;;;;;;;;;2.26;83.63;101903.50;5065844;28;19923;-58
2023/04/26 02:27:26;;;;;;;;;;;;;;;2.18;83.20;101904.81;5064744;28;19916;-57
2023/04/26 02:29:51;;;;;;;;;;;;;;;2.14;83.28;101899.84;5065954;28;19921;-57
2023/04/26 02:32:17;;;;;;;;;;;;;;;2.10;83.50;101898.34;5069601;28;19916;-56
2023/04/26 02:34:42;;;;;;;;;;;;;;;2.06;83.76;101897.69;5069261;28;20540;-57
2023/04/26 02:37:07;;;;;;;;;;;;;;;2.07;83.79;101901.13;5068679;28;19967;-58
2023/04/26 02:39:33;;;;;;;;;;;;;;;2.07;83.85;101901.97;5068579;28;19916;-57
2023/04/26 02:41:58;;;;;;;;;;;;;;;2.09;84.04;101887.00;5066856;28;19966;-58
2023/04/26 02:44:23;;;;;;;;;;;;;;;2.10;84.39;101891.31;5060373;28;20011;-58
2023/04/26 02:46:48;;;;;;;;;;;;;;;2.11;84.25;101886.91;5068782;28;19970;-58
2023/04/26 02:49:14;;;;;;;;;;;;;;;2.13;84.39;101891.13;5060566;28;19955;-58
2023/04/26 02:51:39;;;;;;;;;;;;;;;2.16;84.24;101887.50;5067942;28;19950;-58
2023/04/26 02:54:05;;;;;;;;;;;;;;;2.17;84.23;101884.78;5065023;28;20006;-58
2023/04/26 02:56:30;;;;;;;;;;;;;;;2.15;84.42;101886.66;5069439;28;19925;-57
2023/04/26 02:58:55;;;;;;;;;;;;;;;2.14;84.60;101878.88;5063200;28;20042;-57
2023/04/26 03:01:20;;;;;;;;;;;;;;;2.12;84.34;101881.59;5053300;28;19917;-57
2023/04/26 03:03:46;;;;;;;;;;;;;;;2.06;84.20;101876.72;5062350;28;19923;-57
2023/04/26 03:06:11;;;;;;;;;;;;;;;2.05;84.03;101874.19;5060319;28;19924;-58
2023/04/26 03:08:36;;;;;;;;;;;;;;;2.03;83.84;101876.06;5066225;28;19963;-57
2023/04/26 03:11:01;;;;;;;;;;;;;;;2.01;83.62;101878.75;5065372;28;19921;-57
2023/04/26 03:13:27;;;;;;;;;;;;;;;1.98;83.67;101876.31;5070060;28;19966;-57
2023/04/26 03:15:52;;;;;;;;;;;;;;;1.95;84.09;101883.50;5064931;28;20003;-57
2023/04/26 03:18:18;;;;;;;;;;;;;;;1.93;84.42;101883.59;5062025;28;19920;-57
2023/04/26 03:20:43;;;;;;;;;;;;;;;1.91;84.70;101882.00;5059419;28;19927;-58
2023/04/26 03:23:08;;;;;;;;;;;;;;;1.89;84.63;101884.69;5055917;28;20016;-57
2023/04/26 03:25:33;;;;;;;;;;;;;;;1.86;84.61;101877.88;5058662;28;19920;-58
2023/04/26 03:27:59;;;;;;;;;;;;;;;1.85;84.58;101876.19;5060811;28;19917;-57
2023/04/26 03:30:24;;;;;;;;;;;;;;;1.83;84.87;101874.59;5060046;28;19916;-57
2023/04/26 03:32:49;;;;;;;;;;;;;;;1.78;84.87;101882.72;5058458;28;19916;-58
2023/04/26 03:35:15;;;;;;;;;;;;;;;1.73;85.03;101876.03;5062444;28;20381;-58
2023/04/26 03:37:40;;;;;;;;;;;;;;;1.70;85.11;101881.44;5065513;28;19952;-56
2023/04/26 03:40:07;;;;;;;;;;;;;;;1.66;85.37;101872.94;5068204;28;20563;-57
2023/04/26 03:42:32;;;;;;;;;;;;;;;1.65;85.48;101873.88;5065034;28;19917;-58
2023/04/26 03:44:57;;;;;;;;;;;;;;;1.63;85.59;101867.88;5057201;28;20576;-58
2023/04/26 03:47:23;;;;;;;;;;;;;;;1.62;85.66;101863.56;5063301;28;20004;-57
2023/04/26 03:49:48;;;;;;;;;;;;;;;1.62;85.89;101867.97;5061356;28;20453;-57
2023/04/26 03:52:13;;;;;;;;;;;;;;;1.63;85.88;101870.50;5067037;28;19999;-57
2023/04/26 03:54:38;;;;;;;;;;;;;;;1.63;86.03;101874.88;5066002;28;20287;-57
2023/04/26 03:57:03;;;;;;;;;;;;;;;1.62;85.92;101871.41;5068489;28;19958;-57
2023/04/26 03:59:28;;;;;;;;;;;;;;;1.59;85.83;101876.00;5056009;28;19917;-57
2023/04/26 04:01:54;;;;;;;;;;;;;;;1.54;85.96;101877.09;5062471;28;19916;-57
2023/04/26 04:04:19;;;;;;;;;;;;;;;1.52;86.16;101878.97;5064570;28;20002;-58
2023/04/26 04:06:45;;;;;;;;;;;;;;;1.49;86.28;101871.28;5061000;28;20290;-56
2023/04/26 04:09:10;;;;;;;;;;;;;;;1.47;86.53;101865.31;5056570;28;20293;-57
2023/04/26 04:11:35;;;;;;;;;;;;;;;1.48;86.72;101866.97;5063705;28;19927;-58
2023/04/26 04:14:01;;;;;;;;;;;;;;;1.48;86.59;101871.38;5056986;28;22067;-58
2023/04/26 04:16:26;;;;;;;;;;;;;;;1.45;86.56;101876.78;5058743;28;19919;-58
2023/04/26 04:18:52;;;;;;;;;;;;;;;1.41;86.58;101876.09;5060218;28;19921;-59
2023/04/26 04:21:17;;;;;;;;;;;;;;;1.40;86.54;101874.41;5053415;28;19916;-58
2023/04/26 04:23:43;;;;;;;;;;;;;;;1.38;86.70;101873.66;5063837;28;20344;-58
2023/04/26 04:26:08;;;;;;;;;;;;;;;1.37;86.76;101869.34;5057371;28;19924;-58
2023/04/26 04:28:33;;;;;;;;;;;;;;;1.38;86.76;101870.19;5058626;28;21133;-58
2023/04/26 04:31:00;;;;;;;;;;;;;;;1.41;86.60;101868.25;5056581;28;19921;-58
2023/04/26 04:33:27;;;;;;;;;;;;;;;1.46;86.40;101871.47;5056048;28;20353;-58
2023/04/26 04:35:53;;;;;;;;;;;;;;;1.50;86.31;101878.22;5061150;28;19959;-59
2023/04/26 04:38:18;;;;;;;;;;;;;;;1.52;86.74;101880.75;5059529;28;20331;-58
2023/04/26 04:40:46;;;;;;;;;;;;;;;1.53;86.98;101882.44;5054788;28;20370;-58
2023/04/26 04:43:11;;;;;;;;;;;;;;;1.53;87.01;101885.88;5060949;28;20122;-58
2023/04/26 04:45:37;;;;;;;;;;;;;;;1.54;87.24;101884.94;5056660;28;20535;-57
2023/04/26 04:48:04;;;;;;;;;;;;;;;1.56;87.38;101884.88;5057759;28;19976;-58
2023/04/26 04:50:30;;;;;;;;;;;;;;;1.58;87.45;101876.94;5059367;28;19928;-57
2023/04/26 04:52:56;;;;;;;;;;;;;;;1.61;87.30;101884.59;5055277;28;20011;-58
2023/04/26 04:55:21;;;;;;;;;;;;;;;1.66;87.51;101891.25;5062251;28;20133;-57
2023/04/26 04:57:46;;;;;;;;;;;;;;;1.71;87.67;101891.00;5058311;28;19940;-57
2023/04/26 05:00:11;;;;;;;;;;;;;;;1.76;88.15;101899.44;5060252;28;20390;-57
2023/04/26 05:02:37;;;;;;;;;;;;;;;1.71;88.37;101902.31;5062696;28;19916;-58
2023/04/26 05:05:03;;;;;;;;;;;;;;;1.63;88.43;101904.53;5056656;28;19912;-58
2023/04/26 05:07:29;;;;;;;;;;;;;;;1.63;88.62;101901.91;5064771;28;19928;-56
2023/04/26 05:09:55;;;;;;;;;;;;;;;1.64;88.88;101895.75;5062760;28;19925;-58
2023/04/26 05:12:20;;;;;;;;;;;;;;;1.69;89.31;101892.84;5058742;28;19916;-58
2023/04/26 05:14:45;;;;;;;;;;;;;;;1.76;89.57;101899.44;5066907;28;20381;-58
2023/04/26 05:17:11;;;;;;;;;;;;;;;1.83;89.49;101900.78;5052218;28;20039;-58
2023/04/26 05:19:36;;;;;;;;;;;;;;;1.92;89.50;101902.00;5068003;28;20325;-57
2023/04/26 05:22:01;;;;;;;;;;;;;;;2.00;89.69;101907.66;5056389;28;19952;-58
2023/04/26 05:24:29;;;;;;;;;;;;;;;2.06;89.62;101908.16;5056715;28;19921;-57
2023/04/26 05:26:55;;;;;;;;;;;;;;;2.16;89.81;101909.28;5061796;28;19931;-58
2023/04/26 05:29:20;;;;;;;;;;;;;;;2.25;89.64;101905.28;5060622;28;19973;-58
2023/04/26 05:31:45;;;;;;;;;;;;;;;2.32;89.58;101905.78;5063004;28;19916;-58
2023/04/26 05:34:10;;;;;;;;;;;;;;;2.38;89.70;101901.00;5062319;28;19917;-58
2023/04/26 05:36:35;;;;;;;;;;;;;;;2.43;89.70;101901.56;5051233;28;19920;-57
2023/04/26 05:39:00;;;;;;;;;;;;;;;2.50;89.61;101899.41;5052037;28;19917;-58
2023/04/26 05:41:26;;;;;;;;;;;;;;;2.55;89.65;101909.63;5065491;28;19924;-58
2023/04/26 05:43:51;;;;;;;;;;;;;;;2.60;89.90;101912.81;5057955;28;19923;-57
2023/04/26 05:46:16;;;;;;;;;;;;;;;2.65;89.71;101922.09;5055191;28;20006;-57
2023/04/26 05:48:41;;;;;;;;;;;;;;;2.71;89.33;101911.22;5058109;28;19921;-57
2023/04/26 05:51:06;;;;;;;;;;;;;;;2.77;89.29;101913.47;5059904;28;19972;-59
2023/04/26 05:53:32;;;;;;;;;;;;;;;2.83;89.39;101912.25;5055586;28;19916;-57
2023/04/26 05:55:57;;;;;;;;;;;;;;;2.89;89.35;101916.28;5060637;28;19951;-58
2023/04/26 05:58:22;;;;;;;;;;;;;;;2.91;89.46;101911.81;5062940;28;19962;-59
2023/04/26 06:00:48;;;;;;;;;;;;;;;2.89;89.47;101917.16;5060425;28;19917;-57
2023/04/26 06:03:13;;;;;;;;;;;;;;;2.93;89.49;101912.56;5059747;28;20357;-58
2023/04/26 06:05:38;;;;;;;;;;;;;;;3.03;89.72;101913.66;5065898;28;19991;-57
2023/04/26 06:08:04;;;;;;;;;;;;;;;3.15;89.90;101917.28;5058429;28;19923;-58
2023/04/26 06:10:29;;;;;;;;;;;;;;;3.24;89.80;101908.84;5052596;28;19920;-58
2023/04/26 06:12:54;;;;;;;;;;;;;;;3.37;90.07;101909.75;5066568;28;20431;-58
2023/04/26 06:15:19;;;;;;;;;;;;;;;3.47;89.97;101907.34;5067041;28;19928;-58
2023/04/26 06:17:45;;;;;;;;;;;;;;;3.54;89.96;101916.56;5066496;28;20423;-57
2023/04/26 06:20:10;;;;;;;;;;;;;;;3.64;90.25;101909.75;5066907;28;20007;-56
2023/04/26 06:22:36;;;;;;;;;;;;;;;3.77;90.13;101913.28;5060793;28;19952;-57
2023/04/26 06:25:01;;;;;;;;;;;;;;;3.91;90.30;101918.47;5066940;28;20293;-57
2023/04/26 06:27:27;;;;;;;;;;;;;;;4.02;90.16;101920.38;5064653;28;20377;-57
2023/04/26 06:29:52;;;;;;;;;;;;;;;4.09;89.89;101919.03;5058202;28;19917;-58
2023/04/26 06:32:17;;;;;;;;;;;;;;;4.14;89.58;101922.19;5059183;28;19916;-56
2023/04/26 06:34:44;;;;;;;;;;;;;;;4.18;89.84;101922.84;5060217;28;20544;-57
2023/04/26 06:37:09;;;;;;;;;;;;;;;4.24;89.91;101920.63;5062342;28;20424;-58
2023/04/26 06:39:37;;;;;;;;;;;;;;;4.31;90.05;101923.69;5067410;28;19927;-58
2023/04/26 06:42:02;;;;;;;;;;;;;;;4.42;90.17;101931.72;5064899;28;20392;-58
2023/04/26 06:44:27;;;;;;;;;;;;;;;4.50;90.21;101941.69;5063984;28;19917;-57
2023/04/26 06:46:54;;;;;;;;;;;;;;;4.58;90.33;101947.28;5064983;28;19955;-57
2023/04/26 06:49:19;;;;;;;;;;;;;;;4.66;90.49;101945.81;5059551;28;19923;-57
2023/04/26 06:51:44;;;;;;;;;;;;;;;4.78;90.78;101935.38;5064899;28;19920;-57
2023/04/26 06:54:11;;;;;;;;;;;;;;;4.87;90.41;101942.63;5058314;28;19978;-58
2023/04/26 06:56:36;;;;;;;;;;;;;;;4.95;90.15;101941.16;5068832;28;19917;-58
2023/04/26 06:59:02;;;;;;;;;;;;;;;5.04;90.11;101939.69;5063427;28;19920;-58
2023/04/26 07:01:28;;;;;;;;;;;;;;;5.11;89.74;101940.09;5061029;28;20421;-58
2023/04/26 07:03:56;;;;;;;;;;;;;;;5.17;89.20;101935.22;5057539;28;19975;-58
2023/04/26 07:06:22;;;;;;;;;;;;;;;5.26;89.18;101937.22;5062115;28;20442;-59
2023/04/26 07:08:47;;;;;;;;;;;;;;;5.37;89.02;101941.72;5057166;28;19912;-58
2023/04/26 07:11:12;;;;;;;;;;;;;;;5.46;88.70;101941.03;5063987;28;20420;-57
2023/04/26 07:13:37;;;;;;;;;;;;;;;5.53;88.50;101936.19;5062351;28;19913;-58
2023/04/26 07:16:03;;;;;;;;;;;;;;;5.61;87.92;101944.38;5062596;28;20286;-58
2023/04/26 07:18:28;;;;;;;;;;;;;;;5.67;87.60;101948.34;5058848;28;19912;-57
2023/04/26 07:20:53;;;;;;;;;;;;;;;5.72;87.34;101939.16;5054933;28;20402;-57
2023/04/26 07:23:18;;;;;;;;;;;;;;;5.78;86.56;101945.75;5062989;28;19960;-58
2023/04/26 07:25:43;;;;;;;;;;;;;;;5.86;86.56;101943.44;5067442;28;19923;-55
2023/04/26 07:28:09;;;;;;;;;;;;;;;5.89;86.01;101941.44;5060437;28;20263;-58
2023/04/26 07:30:34;;;;;;;;;;;;;;;5.96;85.83;101944.44;5061656;28;19974;-57
2023/04/26 07:32:59;;;;;;;;;;;;;;;6.05;85.18;101940.28;5057315;28;19913;-55
2023/04/26 07:35:24;;;;;;;;;;;;;;;6.17;84.76;101937.59;5064088;28;19967;-58
2023/04/26 07:37:50;;;;;;;;;;;;;;;6.22;83.39;101937.25;5054512;28;19920;-57
2023/04/26 07:40:15;;;;;;;;;;;;;;;6.26;81.75;101932.56;5059028;28;19919;-58
2023/04/26 07:42:40;;;;;;;;;;;;;;;6.33;81.05;101931.13;5062084;28;20352;-57
2023/04/26 07:45:05;;;;;;;;;;;;;;;6.45;80.48;101936.34;5055527;28;19947;-57
2023/04/26 07:47:31;;;;;;;;;;;;;;;6.55;79.84;101940.91;5057844;28;19916;-57
2023/04/26 07:49:56;;;;;;;;;;;;;;;6.63;78.72;101943.78;5058572;28;19917;-57
2023/04/26 07:52:21;;;;;;;;;;;;;;;6.71;78.82;101944.06;5060778;28;19916;-58
2023/04/26 07:54:46;;;;;;;;;;;;;;;6.78;78.54;101947.91;5057462;28;19913;-57
2023/04/26 07:57:12;;;;;;;;;;;;;;;6.78;76.57;101947.91;5062899;28;19912;-57
2023/04/26 07:59:37;;;;;;;;;;;;;;;6.80;76.87;101944.19;5062239;28;19917;-58
2023/04/26 08:02:02;;;;;;;;;;;;;;;6.90;76.30;101952.22;5066752;28;20426;-57
2023/04/26 08:04:32;;;;;;;;;;;;;;;6.95;75.24;101954.53;5059265;28;19959;-57
2023/04/26 08:06:57;;;;;;;;;;;;;;;6.97;74.49;101958.72;5052784;28;19913;-58
2023/04/26 08:09:22;;;;;;;;;;;;;;;6.95;73.60;101957.16;5053486;28;19912;-57
2023/04/26 08:11:48;;;;;;;;;;;;;;;6.97;73.31;101953.44;5056033;28;19964;-58
2023/04/26 08:14:13;;;;;;;;;;;;;;;7.04;73.59;101964.38;5057642;28;19912;-57
2023/04/26 08:16:39;;;;;;;;;;;;;;;7.09;73.35;101960.41;5060013;28;20309;-56
2023/04/26 08:19:05;;;;;;;;;;;;;;;7.19;73.49;101963.16;5056487;28;19967;-58
2023/04/26 08:21:30;;;;;;;;;;;;;;;7.33;73.31;101957.63;5057926;28;19925;-58
2023/04/26 08:23:55;;;;;;;;;;;;;;;7.38;72.20;101951.97;5056424;28;19952;-58
2023/04/26 08:26:20;;;;;;;;;;;;;;;7.40;71.69;101947.41;5064129;28;20375;-57
2023/04/26 08:28:46;;;;;;;;;;;;;;;7.45;71.13;101953.16;5062549;28;20436;-57
2023/04/26 08:31:11;;;;;;;;;;;;;;;7.48;69.54;101952.91;5065632;28;19928;-57
2023/04/26 08:33:36;;;;;;;;;;;;;;;7.43;69.13;101949.78;5067430;28;20434;-56
2023/04/26 08:36:01;;;;;;;;;;;;;;;7.39;68.85;101948.38;5051823;28;19912;-57
2023/04/26 08:38:28;;;;;;;;;;;;;;;7.35;68.64;101947.78;5058923;28;20690;-58
2023/04/26 08:40:54;;;;;;;;;;;;;;;7.28;68.59;101949.22;5055762;28;19913;-57
2023/04/26 08:43:20;;;;;;;;;;;;;;;7.23;67.58;101947.88;5066998;28;19999;-57
2023/04/26 08:45:46;;;;;;;;;;;;;;;7.18;67.35;101948.25;5060141;28;20011;-57
2023/04/26 08:48:14;;;;;;;;;;;;;;;7.11;67.21;101950.56;5051899;28;19924;-55
2023/04/26 08:50:41;;;;;;;;;;;;;;;7.09;67.90;101947.19;5056640;28;19997;-57
2023/04/26 08:53:07;;;;;;;;;;;;;;;7.10;68.44;101948.88;5053093;28;19924;-57
2023/04/26 08:55:34;;;;;;;;;;;;;;;7.17;69.10;101951.84;5060642;28;19912;-57
2023/04/26 08:58:00;;;;;;;;;;;;;;;7.23;68.54;101955.81;5058476;28;19913;-58
2023/04/26 09:00:26;;;;;;;;;;;;;;;7.21;68.42;101950.66;5056663;28;19919;-57
2023/04/26 09:02:51;;;;;;;;;;;;;;;7.20;67.90;101953.41;5055368;28;19919;-57
2023/04/26 09:05:22;;;;;;;;;;;;;;;7.20;67.99;101948.13;5057539;28;19999;-55
2023/04/26 09:07:47;;;;;;;;;;;;;;;7.28;67.53;101945.75;5057488;28;20447;-58
2023/04/26 09:10:16;;;;;;;;;;;;;;;7.39;68.19;101945.72;5065647;28;19925;-57
2023/04/26 09:12:42;;;;;;;;;;;;;;;7.57;68.40;101938.97;5059607;28;19916;-57
2023/04/26 09:15:07;;;;;;;;;;;;;;;7.76;68.06;101940.94;5054176;28;20293;-58
2023/04/26 09:17:35;;;;;;;;;;;;;;;8.00;67.38;101933.63;5063938;28;19925;-57
2023/04/26 09:20:03;;;;;;;;;;;;;;;8.30;66.96;101938.19;5058105;28;19956;-57
2023/04/26 09:22:33;;;;;;;;;;;;;;;8.59;65.99;101930.44;5051257;28;19950;-57
2023/04/26 09:24:59;;;;;;;;;;;;;;;8.71;65.01;101928.56;5054994;28;20454;-57
2023/04/26 09:27:33;;;;;;;;;;;;;;;8.95;64.66;101925.59;5062459;28;20341;-57
2023/04/26 09:30:04;;;;;;;;;;;;;;;9.25;64.33;101922.06;5058229;28;19922;-57
2023/04/26 09:32:48;;;;;;;;;;;;;;;9.40;63.96;101926.03;5056348;28;19917;-57
2023/04/26 09:35:26;;;;;;;;;;;;;;;9.46;62.13;101930.78;5059129;28;19920;-57
2023/04/26 09:37:59;;;;;;;;;;;;;;;9.25;60.40;101933.53;5055582;28;19917;-58
2023/04/26 09:40:25;;;;;;;;;;;;;;;9.04;60.59;101942.53;5056669;28;20054;-57
2023/04/26 09:42:58;;;;;;;;;;;;;;;8.90;59.15;101939.25;5064114;28;19938;-57
2023/04/26 09:45:23;;;;;;;;;;;;;;;8.80;60.38;101948.13;5071147;28;19917;-57
2023/04/26 09:47:48;;;;;;;;;;;;;;;8.74;60.44;101938.91;5068101;28;20369;-58
2023/04/26 09:50:24;;;;;;;;;;;;;;;8.71;60.53;101946.28;5062710;28;20013;-58
2023/04/26 09:52:49;;;;;;;;;;;;;;;8.78;61.16;101936.81;5065571;28;19923;-58
2023/04/26 09:55:24;;;;;;;;;;;;;;;8.86;60.35;101929.88;5067708;28;19925;-57
2023/04/26 09:57:49;;;;;;;;;;;;;;;8.94;60.29;101939.81;5065773;28;20697;-58
2023/04/26 10:00:15;;;;;;;;;;;;;;;9.05;60.67;101930.94;5069240;28;19943;-57
2023/04/26 10:02:40;;;;;;;;;;;;;;;9.16;60.16;101928.19;5067493;28;20402;-56
2023/04/26 10:05:06;;;;;;;;;;;;;;;9.28;60.31;101924.47;5066243;28;20458;-57
2023/04/26 10:07:32;;;;;;;;;;;;;;;9.33;59.67;101924.91;5061927;28;19916;-57
2023/04/26 10:09:57;;;;;;;;;;;;;;;9.26;59.23;101927.28;5060733;28;20018;-58
2023/04/26 10:12:23;;;;;;;;;;;;;;;9.12;59.98;101924.97;5067400;28;19996;-57
2023/04/26 10:14:48;;;;;;;;;;;;;;;9.05;58.76;101933.59;5071813;28;19947;-57
2023/04/26 10:17:13;;;;;;;;;;;;;;;8.94;57.17;101934.50;5066128;28;19913;-57
2023/04/26 10:19:40;;;;;;;;;;;;;;;8.94;57.53;101935.34;5064759;28;19966;-56
2023/04/26 10:22:11;;;;;;;;;;;;;;;9.00;57.11;101944.59;5067600;28;20394;-57
2023/04/26 10:24:36;;;;;;;;;;;;;;;9.03;56.58;101935.56;5062508;28;20313;-58
2023/04/26 10:27:02;;;;;;;;;;;;;;;8.95;56.75;101939.69;5059833;28;20393;-57
2023/04/26 10:29:48;;;;;;;;;;;;;;;8.93;56.14;101933.69;5061378;28;20381;-57
2023/04/26 10:32:16;;;;;;;;;;;;;;;8.92;55.52;101925.88;5063386;28;19917;-57
2023/04/26 10:34:42;;;;;;;;;;;;;;;8.95;55.19;101921.13;5063981;28;19931;-58
2023/04/26 10:37:13;;;;;;;;;;;;;;;9.00;55.28;101918.94;5062057;28;19916;-57
2023/04/26 10:39:39;;;;;;;;;;;;;;;9.08;55.98;101920.91;5063681;28;19963;-57
2023/04/26 10:42:25;;;;;;;;;;;;;;;9.22;56.40;101922.34;5059575;28;19975;-58
2023/04/26 10:45:17;;;;;;;;;;;;;;;9.37;56.26;101915.69;5066550;28;19932;-57
2023/04/26 10:47:42;;;;;;;;;;;;;;;9.52;56.42;101913.47;5059096;28;19999;-57
2023/04/26 10:50:08;;;;;;;;;;;;;;;9.61;56.16;101910.88;5064293;28;20024;-58
2023/04/26 10:52:54;;;;;;;;;;;;;;;9.70;56.44;101917.16;5064763;28;19928;-58
2023/04/26 10:55:38;;;;;;;;;;;;;;;9.78;56.53;101917.28;5062475;28;19923;-58
2023/04/26 10:58:23;;;;;;;;;;;;;;;9.55;55.04;101918.53;5061362;28;19959;-58
2023/04/26 11:01:02;;;;;;;;;;;;;;;9.34;54.89;101915.13;5062593;28;20007;-57
2023/04/26 11:03:29;;;;;;;;;;;;;;;9.31;55.65;101918.91;5062433;28;19916;-58
2023/04/26 11:05:55;;;;;;;;;;;;;;;9.37;55.22;101914.88;5058828;28;20028;-57
2023/04/26 11:08:23;;;;;;;;;;;;;;;9.31;55.49;101906.50;5057336;28;20390;-58
2023/04/26 11:10:55;;;;;;;;;;;;;;;9.33;55.95;101909.00;5060447;28;19920;-58
2023/04/26 11:13:20;;;;;;;;;;;;;;;9.14;55.81;101908.94;5058343;28;19916;-58
2023/04/26 11:15:46;;;;;;;;;;;;;;;9.04;55.46;101903.63;5058510;28;19923;-58
2023/04/26 11:18:11;;;;;;;;;;;;;;;9.01;55.56;101898.59;5053641;28;19920;-58
2023/04/26 11:20:37;;;;;;;;;;;;;;;9.00;55.88;101905.69;5065097;28;19942;-58
2023/04/26 11:23:02;;;;;;;;;;;;;;;9.06;55.61;101896.38;5064137;28;19920;-58
2023/04/26 11:25:28;;;;;;;;;;;;;;;9.17;56.08;101898.06;5062146;28;19978;-58
2023/04/26 11:27:57;;;;;;;;;;;;;;;9.25;56.15;101890.25;5069271;28;19970;-57
2023/04/26 11:30:22;;;;;;;;;;;;;;;9.34;56.46;101892.13;5063295;28;20434;-57
2023/04/26 11:32:47;;;;;;;;;;;;;;;9.54;57.18;101885.88;5063283;28;19991;-58
2023/04/26 11:35:14;;;;;;;;;;;;;;;9.76;57.53;101883.91;5062141;28;19912;-58
2023/04/26 11:37:39;;;;;;;;;;;;;;;9.88;56.62;101888.13;5071727;28;20006;-58
2023/04/26 11:40:08;;;;;;;;;;;;;;;9.87;56.48;101881.13;5064145;28;20015;-58
2023/04/26 11:42:33;;;;;;;;;;;;;;;9.83;56.73;101885.03;5061165;28;19923;-58
2023/04/26 11:45:00;;;;;;;;;;;;;;;9.91;57.15;101883.38;5062855;28;19999;-57
2023/04/26 11:47:29;;;;;;;;;;;;;;;10.07;57.05;101887.25;5059945;28;20011;-58
2023/04/26 11:49:54;;;;;;;;;;;;;;;10.02;56.59;101887.69;5057567;28;19927;-58
2023/04/26 11:52:20;;;;;;;;;;;;;;;9.99;56.14;101882.66;5065701;28;20003;-57
2023/04/26 11:54:45;;;;;;;;;;;;;;;10.02;55.65;101885.03;5065813;28;19917;-58
2023/04/26 11:57:15;;;;;;;;;;;;;;;10.13;56.05;101895.50;5074875;28;20335;-58
2023/04/26 11:59:40;;;;;;;;;;;;;;;10.25;56.89;101896.22;5066320;28;20800;-58
2023/04/26 12:02:06;;;;;;;;;;;;;;;10.20;56.66;101891.31;5065159;28;19990;-58
2023/04/26 12:04:31;;;;;;;;;;;;;;;10.14;56.57;101901.66;5062797;28;19964;-57
2023/04/26 12:06:56;;;;;;;;;;;;;;;10.20;56.60;101887.81;5056614;28;19924;-58
2023/04/26 12:09:23;;;;;;;;;;;;;;;10.30;56.32;101901.91;5065908;28;19923;-58
2023/04/26 12:11:52;;;;;;;;;;;;;;;10.30;55.71;101898.44;5062631;28;19928;-58
2023/04/26 12:14:17;;;;;;;;;;;;;;;10.27;54.99;101893.41;5063841;28;20508;-58
2023/04/26 12:16:43;;;;;;;;;;;;;;;10.23;55.20;101896.34;5062826;28;19916;-58
2023/04/26 12:19:10;;;;;;;;;;;;;;;10.32;55.37;101896.47;5060092;28;19938;-58
2023/04/26 12:21:41;;;;;;;;;;;;;;;10.42;54.92;101892.81;5068687;28;19916;-58
2023/04/26 12:24:06;;;;;;;;;;;;;;;10.53;54.96;101894.47;5063605;28;19924;-58
2023/04/26 12:26:44;;;;;;;;;;;;;;;10.45;53.84;101897.00;5067011;28;19916;-58
2023/04/26 12:29:09;;;;;;;;;;;;;;;10.27;52.52;101896.06;5066783;28;19916;-58
2023/04/26 12:31:34;;;;;;;;;;;;;;;10.18;53.05;101900.38;5059894;28;20527;-58
2023/04/26 12:33:59;;;;;;;;;;;;;;;10.27;53.46;101893.41;5056956;28;19920;-58
2023/04/26 12:36:25;;;;;;;;;;;;;;;10.37;53.15;101897.72;5063357;28;20404;-58
2023/04/26 12:38:50;;;;;;;;;;;;;;;10.31;52.88;101877.03;5063739;28;20030;-57
2023/04/26 12:41:16;;;;;;;;;;;;;;;10.46;52.91;101899.53;5062931;28;19958;-58